Time;durP1;ratioP1;P1;durP2;ratioP2;P2;SDS_P1;SDS_P2;PMS_P1;PMS_P2;Temp;Humidity;BMP_temperature;BMP_pressure;BME280_temperature;BME280_humidity;BME280_pressure;Samples;Min_cycle;Max_cycle;Signal;HPM_P1;HPM_P2
2021/05/04 00:01:25;;;;;;;82.13;47.73;;;16.90;99.90;;;;;;5072315;28;20259;-73
2021/05/04 00:03:56;;;;;;;68.50;44.03;;;17.00;99.90;;;;;;5070845;28;20187;-72
2021/05/04 00:06:23;;;;;;;64.77;45.23;;;17.10;99.90;;;;;;5067932;28;21047;-73
2021/05/04 00:08:51;;;;;;;62.97;42.87;;;17.10;99.90;;;;;;5071031;28;20171;-74
2021/05/04 00:11:19;;;;;;;65.53;43.57;;;17.10;99.90;;;;;;5053813;28;20610;-73
2021/05/04 00:13:46;;;;;;;60.97;42.50;;;16.90;99.90;;;;;;5072587;28;20228;-72
2021/05/04 00:16:14;;;;;;;70.33;43.77;;;16.90;99.90;;;;;;5072297;28;20186;-74
2021/05/04 00:18:41;;;;;;;61.87;38.63;;;16.80;99.90;;;;;;5047009;28;20271;-71
2021/05/04 00:21:08;;;;;;;63.87;41.27;;;16.80;99.90;;;;;;5050509;28;20541;-74
2021/05/04 00:23:36;;;;;;;61.27;41.37;;;16.80;99.90;;;;;;5066130;28;20203;-75
2021/05/04 00:26:03;;;;;;;64.57;41.67;;;16.60;99.90;;;;;;5061746;28;20190;-72
2021/05/04 00:28:31;;;;;;;70.43;43.70;;;16.60;99.90;;;;;;5072354;28;20186;-72
2021/05/04 00:30:58;;;;;;;68.77;44.73;;;16.50;99.90;;;;;;5071805;28;20696;-73
2021/05/04 00:33:25;;;;;;;70.97;46.90;;;16.30;99.90;;;;;;5072431;28;20584;-73
2021/05/04 00:35:55;;;;;;;63.97;44.13;;;16.20;99.90;;;;;;5071999;28;20189;-74
2021/05/04 00:38:23;;;;;;;64.50;43.43;;;16.10;99.90;;;;;;5072119;28;20703;-72
2021/05/04 00:40:51;;;;;;;68.43;47.40;;;16.10;99.90;;;;;;5067363;28;20215;-72
2021/05/04 00:43:24;;;;;;;70.27;48.07;;;16.10;99.90;;;;;;5045960;28;20582;-73
2021/05/04 00:45:51;;;;;;;76.10;49.60;;;16.00;99.90;;;;;;5046235;28;20206;-72
2021/05/04 00:48:19;;;;;;;71.07;48.43;;;16.10;99.90;;;;;;5053222;28;20185;-74
2021/05/04 00:50:46;;;;;;;60.80;45.03;;;16.00;99.90;;;;;;5052425;28;20245;-73
2021/05/04 00:53:14;;;;;;;69.60;45.53;;;16.10;99.90;;;;;;5054067;28;20180;-72
2021/05/04 00:55:42;;;;;;;72.80;45.50;;;16.00;99.90;;;;;;5051831;28;20516;-72
2021/05/04 00:58:13;;;;;;;59.40;43.50;;;16.10;99.90;;;;;;5064920;28;20261;-72
2021/05/04 01:00:41;;;;;;;64.83;43.77;;;16.20;99.90;;;;;;5070834;28;20653;-73
2021/05/04 01:03:10;;;;;;;62.27;41.47;;;16.30;99.90;;;;;;5071821;28;20226;-73
2021/05/04 01:05:39;;;;;;;66.70;44.67;;;16.40;99.90;;;;;;5056187;28;20184;-73
2021/05/04 01:08:07;;;;;;;63.40;43.90;;;16.40;99.90;;;;;;5071745;28;20244;-73
2021/05/04 01:10:34;;;;;;;59.10;41.23;;;16.50;99.90;;;;;;5055994;28;20210;-72
2021/05/04 01:13:02;;;;;;;58.07;39.80;;;16.40;99.90;;;;;;5052938;28;20630;-74
2021/05/04 01:15:30;;;;;;;61.40;41.80;;;16.40;99.90;;;;;;5051783;28;20175;-71
2021/05/04 01:17:57;;;;;;;60.27;38.77;;;16.40;99.90;;;;;;5050244;28;20638;-73
2021/05/04 01:20:25;;;;;;;57.83;39.67;;;16.40;99.90;;;;;;5052023;28;20171;-73
2021/05/04 01:22:54;;;;;;;53.20;34.20;;;16.40;99.90;;;;;;5062105;28;20178;-72
2021/05/04 01:25:21;;;;;;;48.57;35.90;;;16.30;99.90;;;;;;5056839;28;20237;-73
2021/05/04 01:27:49;;;;;;;50.47;32.43;;;16.30;99.90;;;;;;5055641;28;20191;-73
2021/05/04 01:30:17;;;;;;;48.77;32.47;;;16.30;99.90;;;;;;5064861;28;20576;-72
2021/05/04 01:32:44;;;;;;;50.87;30.80;;;16.30;99.90;;;;;;5071676;28;20189;-74
2021/05/04 01:35:12;;;;;;;47.77;29.60;;;16.30;99.90;;;;;;5061469;28;20178;-72
2021/05/04 01:37:40;;;;;;;42.37;25.97;;;16.30;99.90;;;;;;5068689;28;20591;-73
2021/05/04 01:40:08;;;;;;;44.10;28.47;;;16.30;99.90;;;;;;5071014;28;20652;-73
2021/05/04 01:42:36;;;;;;;43.17;25.80;;;16.30;99.90;;;;;;5071488;28;20273;-73
2021/05/04 01:45:04;;;;;;;38.13;24.17;;;16.40;99.90;;;;;;5067534;28;20193;-73
2021/05/04 01:47:31;;;;;;;30.57;20.73;;;16.40;99.90;;;;;;5068235;28;20633;-73
2021/05/04 01:49:59;;;;;;;32.47;21.97;;;16.30;99.90;;;;;;5054195;28;20233;-73
2021/05/04 01:52:28;;;;;;;33.33;21.80;;;16.30;99.90;;;;;;5054335;28;20511;-73
2021/05/04 01:54:55;;;;;;;34.67;23.37;;;16.40;99.90;;;;;;5061097;28;20194;-73
2021/05/04 01:57:23;;;;;;;28.83;21.20;;;16.40;99.90;;;;;;5066512;28;20255;-73
2021/05/04 01:59:51;;;;;;;41.63;24.93;;;16.40;99.90;;;;;;5074938;28;20209;-73
2021/05/04 02:02:19;;;;;;;44.13;28.23;;;16.30;99.90;;;;;;5072272;28;20195;-73
2021/05/04 02:04:46;;;;;;;46.77;32.80;;;16.20;99.90;;;;;;5066564;28;20178;-74
2021/05/04 02:07:14;;;;;;;52.23;36.03;;;16.30;99.90;;;;;;5054040;28;20191;-74
2021/05/04 02:09:41;;;;;;;53.60;38.47;;;16.20;99.90;;;;;;5061171;28;20190;-73
2021/05/04 02:12:09;;;;;;;55.27;40.93;;;16.20;99.90;;;;;;5068881;28;20578;-74
2021/05/04 02:14:36;;;;;;;65.37;44.67;;;16.20;99.90;;;;;;5057276;28;20569;-73
2021/05/04 02:17:04;;;;;;;58.87;42.77;;;16.20;99.90;;;;;;5056684;28;20233;-72
2021/05/04 02:19:31;;;;;;;59.90;44.87;;;16.30;99.90;;;;;;5054266;28;20254;-74
2021/05/04 02:21:59;;;;;;;63.00;46.97;;;16.30;99.90;;;;;;5074454;28;20174;-74
2021/05/04 02:24:26;;;;;;;58.80;44.27;;;16.40;99.90;;;;;;5066807;28;20187;-73
2021/05/04 02:26:54;;;;;;;69.20;48.70;;;16.40;99.90;;;;;;5054326;28;20174;-74
2021/05/04 02:29:21;;;;;;;65.53;48.27;;;16.40;99.90;;;;;;5054608;28;20198;-72
2021/05/04 02:31:48;;;;;;;68.63;47.93;;;16.40;99.90;;;;;;5067659;28;20678;-73
2021/05/04 02:34:16;;;;;;;61.30;48.47;;;16.30;99.90;;;;;;5069915;28;20174;-73
2021/05/04 02:36:43;;;;;;;75.20;51.47;;;16.40;99.90;;;;;;5050419;28;20291;-73
2021/05/04 02:39:10;;;;;;;62.73;47.77;;;16.40;99.90;;;;;;5074483;28;20591;-73
2021/05/04 02:41:38;;;;;;;68.27;50.53;;;16.40;99.90;;;;;;5062043;28;20241;-73
2021/05/04 02:44:06;;;;;;;66.77;52.03;;;16.40;99.90;;;;;;5072780;28;20179;-73
2021/05/04 02:46:35;;;;;;;70.70;53.47;;;16.40;99.90;;;;;;5073765;28;20192;-74
2021/05/04 02:49:02;;;;;;;73.27;52.27;;;16.50;99.90;;;;;;5073807;28;20174;-73
2021/05/04 02:51:30;;;;;;;77.70;53.93;;;16.40;99.90;;;;;;5060046;28;20215;-73
2021/05/04 02:53:57;;;;;;;76.37;56.83;;;16.40;99.90;;;;;;5057897;28;20186;-76
2021/05/04 02:56:25;;;;;;;76.33;53.40;;;16.40;99.90;;;;;;5052469;28;20186;-75
2021/05/04 02:58:53;;;;;;;81.80;58.60;;;16.30;99.90;;;;;;5053897;28;20292;-73
2021/05/04 03:01:20;;;;;;;73.87;56.33;;;16.30;99.90;;;;;;5049207;28;20194;-75
2021/05/04 03:03:47;;;;;;;79.90;57.57;;;16.40;99.90;;;;;;5054326;28;20187;-74
2021/05/04 03:06:15;;;;;;;80.93;59.70;;;16.30;99.90;;;;;;5054421;28;20538;-77
2021/05/04 03:08:42;;;;;;;82.00;60.50;;;16.40;99.90;;;;;;5053564;28;20300;-75
2021/05/04 03:11:10;;;;;;;89.70;65.93;;;16.50;99.90;;;;;;5053039;28;20267;-75
2021/05/04 03:13:37;;;;;;;82.37;59.33;;;16.50;99.90;;;;;;5053189;28;20214;-73
2021/05/04 03:16:05;;;;;;;81.17;59.20;;;16.50;99.90;;;;;;5052631;28;20487;-74
2021/05/04 03:18:32;;;;;;;75.30;54.93;;;16.40;99.90;;;;;;5053602;28;20606;-75
2021/05/04 03:21:00;;;;;;;68.67;54.57;;;16.40;99.90;;;;;;5055894;28;20589;-75
2021/05/04 03:23:27;;;;;;;75.27;55.30;;;16.50;99.90;;;;;;5053012;28;20175;-75
2021/05/04 03:25:55;;;;;;;72.45;57.08;;;16.60;99.90;;;;;;5053541;28;20441;-75
2021/05/04 03:28:22;;;;;;;85.70;61.53;;;16.70;99.90;;;;;;5052486;28;20233;-74
2021/05/04 03:30:50;;;;;;;79.23;62.63;;;16.60;99.90;;;;;;5054171;28;20231;-75
2021/05/04 03:33:17;;;;;;;77.57;59.00;;;16.60;99.90;;;;;;5054236;28;20187;-73
2021/05/04 03:35:44;;;;;;;81.47;58.77;;;16.60;99.90;;;;;;5048485;28;20179;-74
2021/05/04 03:38:12;;;;;;;74.40;55.10;;;16.60;99.90;;;;;;5051386;28;20184;-74
2021/05/04 03:40:39;;;;;;;72.83;54.90;;;16.50;99.90;;;;;;5052894;28;20578;-72
2021/05/04 03:43:07;;;;;;;71.10;52.07;;;16.50;99.90;;;;;;5056204;28;20233;-73
2021/05/04 03:45:39;;;;;;;73.37;52.23;;;16.40;99.90;;;;;;5053678;28;20210;-73
2021/05/04 03:48:08;;;;;;;74.93;53.10;;;16.40;99.90;;;;;;5049640;28;20847;-74
2021/05/04 03:50:35;;;;;;;58.40;48.27;;;16.50;99.90;;;;;;5055443;28;20210;-73
2021/05/04 03:53:03;;;;;;;63.67;46.23;;;16.50;99.90;;;;;;5052279;28;20274;-73
2021/05/04 03:55:30;;;;;;;63.30;48.40;;;16.50;99.90;;;;;;5056857;28;20617;-73
2021/05/04 03:58:01;;;;;;;64.20;46.93;;;16.50;99.90;;;;;;5053479;28;20194;-73
2021/05/04 04:00:28;;;;;;;61.10;46.93;;;16.50;99.90;;;;;;5051168;28;20216;-73
2021/05/04 04:03:03;;;;;;;60.17;43.70;;;16.60;99.90;;;;;;5051112;28;20705;-72
2021/05/04 04:05:30;;;;;;;49.03;38.07;;;16.50;99.90;;;;;;5037874;28;20180;-73
2021/05/04 04:07:58;;;;;;;49.87;35.70;;;16.50;99.90;;;;;;5051670;28;20246;-72
2021/05/04 04:10:26;;;;;;;45.67;34.10;;;16.40;99.90;;;;;;5052836;28;20552;-73
2021/05/04 04:12:54;;;;;;;44.17;31.50;;;16.40;99.90;;;;;;5053059;28;20194;-72
2021/05/04 04:15:21;;;;;;;46.40;32.33;;;16.30;99.90;;;;;;5050441;28;20656;-73
2021/05/04 04:17:48;;;;;;;48.40;32.27;;;16.30;99.90;;;;;;5050238;28;20186;-75
2021/05/04 04:20:16;;;;;;;42.87;32.20;;;16.30;99.90;;;;;;5052172;28;20194;-76
2021/05/04 04:22:43;;;;;;;47.27;32.83;;;16.40;99.90;;;;;;5052369;28;20587;-75
2021/05/04 04:25:11;;;;;;;48.50;34.20;;;16.30;99.90;;;;;;5056252;28;20241;-75
2021/05/04 04:27:39;;;;;;;42.43;31.90;;;16.30;99.90;;;;;;5051443;28;20241;-76
2021/05/04 04:30:07;;;;;;;43.70;33.10;;;16.30;99.90;;;;;;5050229;28;20271;-77
2021/05/04 04:32:34;;;;;;;41.50;30.43;;;16.30;99.90;;;;;;5051540;28;20192;-77
2021/05/04 04:35:01;;;;;;;42.03;28.90;;;16.20;99.90;;;;;;5052336;28;20192;-71
2021/05/04 04:37:29;;;;;;;39.63;27.47;;;16.10;99.90;;;;;;5054720;28;20191;-76
2021/05/04 04:39:56;;;;;;;39.93;27.53;;;16.00;99.90;;;;;;5054660;28;20541;-76
2021/05/04 04:42:24;;;;;;;36.93;26.93;;;16.00;99.90;;;;;;5050608;28;20651;-77
2021/05/04 04:44:51;;;;;;;34.50;24.23;;;16.00;99.90;;;;;;5047493;28;20194;-76
2021/05/04 04:47:18;;;;;;;41.93;25.73;;;16.10;99.90;;;;;;5051067;28;20705;-78
2021/05/04 04:49:46;;;;;;;28.97;21.87;;;16.10;99.90;;;;;;5052836;28;20282;-79
2021/05/04 04:52:13;;;;;;;34.80;22.07;;;16.10;99.90;;;;;;5052609;28;20543;-76
2021/05/04 04:54:41;;;;;;;26.73;21.00;;;16.10;99.90;;;;;;5049444;28;20180;-75
2021/05/04 04:57:08;;;;;;;29.83;21.93;;;16.10;99.90;;;;;;5045605;28;20274;-78
2021/05/04 04:59:35;;;;;;;30.87;20.93;;;16.10;99.90;;;;;;5048753;28;20179;-76
2021/05/04 05:02:03;;;;;;;27.93;20.97;;;16.20;99.90;;;;;;5049842;28;20204;-77
2021/05/04 05:04:31;;;;;;;26.10;20.50;;;16.20;99.90;;;;;;5051149;28;20198;-76
2021/05/04 05:06:58;;;;;;;30.77;18.90;;;16.20;99.90;;;;;;5050252;28;20191;-77
2021/05/04 05:09:25;;;;;;;26.17;17.20;;;16.20;99.90;;;;;;5051377;28;20630;-75
2021/05/04 05:11:53;;;;;;;25.53;17.60;;;16.20;99.90;;;;;;5049485;28;20229;-77
2021/05/04 05:14:20;;;;;;;23.30;17.37;;;16.20;99.90;;;;;;5050070;28;20628;-76
2021/05/04 05:16:48;;;;;;;33.37;18.50;;;16.10;99.90;;;;;;5049591;28;20191;-77
2021/05/04 05:19:15;;;;;;;27.60;19.80;;;16.20;99.90;;;;;;5054999;28;20211;-77
2021/05/04 05:21:42;;;;;;;26.07;18.77;;;16.10;99.90;;;;;;5051636;28;20183;-75
2021/05/04 05:24:10;;;;;;;26.73;19.53;;;16.20;99.90;;;;;;5055151;28;21312;-75
2021/05/04 05:26:37;;;;;;;26.17;19.10;;;16.20;99.90;;;;;;5054049;28;20183;-75
2021/05/04 05:29:06;;;;;;;28.23;19.73;;;16.20;99.90;;;;;;5054732;28;20190;-76
2021/05/04 05:31:35;;;;;;;26.77;18.90;;;16.20;99.90;;;;;;5050914;28;20233;-77
2021/05/04 05:34:03;;;;;;;29.20;20.60;;;16.20;99.90;;;;;;5054133;28;20175;-76
2021/05/04 05:36:30;;;;;;;32.03;20.43;;;16.20;99.90;;;;;;5052746;28;20176;-76
2021/05/04 05:38:58;;;;;;;29.70;20.60;;;16.10;99.90;;;;;;5051249;28;20214;-74
2021/05/04 05:41:26;;;;;;;30.53;22.00;;;16.20;99.90;;;;;;5054095;28;20201;-74
2021/05/04 05:43:53;;;;;;;26.07;20.47;;;16.20;99.90;;;;;;5053942;28;20331;-74
2021/05/04 05:46:22;;;;;;;25.73;18.20;;;16.20;99.90;;;;;;5053617;28;20548;-74
2021/05/04 05:48:50;;;;;;;25.00;17.90;;;16.20;99.90;;;;;;5054227;28;20184;-75
2021/05/04 05:51:17;;;;;;;20.07;14.77;;;16.20;99.90;;;;;;5051779;28;20227;-74
2021/05/04 05:53:45;;;;;;;20.30;15.00;;;16.10;99.90;;;;;;5053612;28;20183;-73
2021/05/04 05:56:12;;;;;;;19.17;13.73;;;16.10;99.90;;;;;;5055282;28;20190;-74
2021/05/04 05:58:39;;;;;;;17.47;13.47;;;16.10;99.90;;;;;;5063484;28;20718;-74
2021/05/04 06:01:07;;;;;;;16.40;11.93;;;16.10;99.90;;;;;;5068167;28;20266;-74
2021/05/04 06:03:34;;;;;;;18.10;12.30;;;16.10;99.90;;;;;;5052726;28;20195;-75
2021/05/04 06:06:02;;;;;;;16.73;12.73;;;16.00;99.90;;;;;;5054427;28;20195;-74
2021/05/04 06:08:29;;;;;;;16.17;11.00;;;16.10;99.90;;;;;;5050213;28;20225;-74
2021/05/04 06:10:57;;;;;;;15.20;11.13;;;16.00;99.90;;;;;;5044727;28;20505;-75
2021/05/04 06:13:24;;;;;;;17.60;12.73;;;16.00;99.90;;;;;;5063600;28;20255;-74
2021/05/04 06:15:51;;;;;;;14.23;11.63;;;16.00;99.90;;;;;;5061572;28;20190;-75
2021/05/04 06:18:19;;;;;;;19.17;13.13;;;16.00;99.90;;;;;;5053223;28;20183;-73
2021/05/04 06:20:46;;;;;;;17.83;12.27;;;16.00;99.90;;;;;;5067075;28;20200;-73
2021/05/04 06:23:14;;;;;;;21.77;12.90;;;16.00;99.90;;;;;;5069051;28;20184;-74
2021/05/04 06:25:41;;;;;;;18.33;12.27;;;16.00;99.90;;;;;;5061158;28;20538;-73
2021/05/04 06:28:09;;;;;;;16.13;11.23;;;16.00;99.90;;;;;;5061308;28;20178;-72
2021/05/04 06:30:38;;;;;;;18.00;11.57;;;16.00;99.90;;;;;;5066315;28;20221;-73
2021/05/04 06:33:07;;;;;;;16.43;10.63;;;16.00;99.90;;;;;;5044986;28;20179;-73
2021/05/04 06:35:37;;;;;;;16.00;11.57;;;15.90;99.90;;;;;;5073797;28;20537;-73
2021/05/04 06:38:05;;;;;;;16.40;10.93;;;15.90;99.90;;;;;;5060834;28;20184;-73
2021/05/04 06:40:33;;;;;;;15.17;10.80;;;16.00;99.90;;;;;;5070715;28;20249;-73
2021/05/04 06:43:01;;;;;;;16.10;9.83;;;15.90;99.90;;;;;;5061869;28;20567;-74
2021/05/04 06:45:29;;;;;;;17.73;10.00;;;15.90;99.90;;;;;;5056650;28;20577;-73
2021/05/04 06:47:57;;;;;;;19.70;8.67;;;15.90;99.90;;;;;;5071113;28;20171;-72
2021/05/04 06:50:24;;;;;;;15.40;8.60;;;15.90;99.90;;;;;;5052284;28;20598;-74
2021/05/04 06:52:52;;;;;;;13.60;8.83;;;15.80;99.90;;;;;;5037899;28;20192;-74
2021/05/04 06:55:19;;;;;;;11.10;8.70;;;15.80;99.90;;;;;;5052932;28;20175;-73
2021/05/04 06:57:47;;;;;;;12.93;9.20;;;15.70;99.90;;;;;;5060100;28;20180;-73
2021/05/04 07:00:15;;;;;;;14.90;9.97;;;15.70;99.90;;;;;;5062666;28;20185;-73
2021/05/04 07:02:42;;;;;;;11.07;8.93;;;15.80;99.90;;;;;;5071786;28;20174;-76
2021/05/04 07:05:10;;;;;;;14.70;9.80;;;15.80;99.90;;;;;;5053790;28;20667;-74
2021/05/04 07:07:38;;;;;;;13.03;9.50;;;15.80;99.90;;;;;;5043259;28;20218;-74
2021/05/04 07:10:05;;;;;;;11.13;8.27;;;15.90;99.90;;;;;;5050849;28;20645;-72
2021/05/04 07:12:33;;;;;;;13.97;9.07;;;15.90;99.90;;;;;;5053662;28;20183;-73
2021/05/04 07:15:00;;;;;;;11.33;8.73;;;15.80;99.90;;;;;;5053379;28;20626;-74
2021/05/04 07:17:28;;;;;;;15.27;9.30;;;15.90;99.90;;;;;;5060104;28;20176;-72
2021/05/04 07:19:56;;;;;;;12.93;8.77;;;15.80;99.90;;;;;;5066681;28;20187;-72
2021/05/04 07:22:29;;;;;;;15.07;8.30;;;15.80;99.90;;;;;;5054507;28;20198;-71
2021/05/04 07:24:56;;;;;;;17.17;9.20;;;15.80;99.90;;;;;;5057171;28;20192;-71
2021/05/04 07:27:24;;;;;;;13.70;9.60;;;15.90;99.90;;;;;;5043876;28;20240;-70
2021/05/04 07:29:52;;;;;;;12.37;9.37;;;15.90;99.90;;;;;;5062078;28;20275;-73
2021/05/04 07:32:19;;;;;;;12.60;8.97;;;15.90;99.90;;;;;;5053492;28;20217;-74
2021/05/04 07:34:47;;;;;;;17.67;9.53;;;15.90;99.90;;;;;;5068786;28;20175;-74
2021/05/04 07:37:15;;;;;;;15.07;9.33;;;15.80;99.90;;;;;;5068434;28;20277;-73
2021/05/04 07:39:43;;;;;;;14.50;9.67;;;15.80;99.90;;;;;;5055916;28;20214;-73
2021/05/04 07:42:12;;;;;;;12.73;9.40;;;15.80;99.90;;;;;;5054054;28;20539;-73
2021/05/04 07:44:40;;;;;;;13.80;10.20;;;15.80;99.90;;;;;;5048160;28;20190;-71
2021/05/04 07:47:08;;;;;;;14.13;10.60;;;15.80;99.90;;;;;;5062320;28;20195;-71
2021/05/04 07:49:42;;;;;;;15.73;10.30;;;15.80;99.90;;;;;;5043608;28;20207;-71
2021/05/04 07:52:10;;;;;;;24.13;11.77;;;15.80;99.90;;;;;;5060576;28;20213;-73
2021/05/04 07:54:37;;;;;;;12.97;10.40;;;15.80;99.90;;;;;;5051411;28;20217;-81
2021/05/04 07:57:05;;;;;;;17.33;11.73;;;15.80;99.90;;;;;;5059271;28;20176;-82
2021/05/04 07:59:32;;;;;;;15.20;10.03;;;15.80;99.90;;;;;;5056528;28;20194;-81
2021/05/04 08:02:02;;;;;;;13.77;10.60;;;15.80;99.90;;;;;;5068386;28;20167;-80
2021/05/04 08:04:30;;;;;;;17.60;11.57;;;15.80;99.90;;;;;;5052583;28;20544;-78
2021/05/04 08:07:00;;;;;;;15.70;11.27;;;15.80;99.90;;;;;;5053065;28;20608;-73
2021/05/04 08:09:28;;;;;;;14.53;11.77;;;15.80;99.90;;;;;;5073660;28;20537;-75
2021/05/04 08:11:56;;;;;;;18.20;12.53;;;15.80;99.90;;;;;;5072972;28;20219;-72
2021/05/04 08:14:24;;;;;;;19.77;13.53;;;15.80;99.90;;;;;;5069650;28;21958;-71
2021/05/04 08:16:53;;;;;;;19.33;15.00;;;15.80;99.90;;;;;;5051168;28;20189;-71
2021/05/04 08:19:21;;;;;;;20.97;14.73;;;15.80;99.90;;;;;;5065699;28;20215;-75
2021/05/04 08:21:49;;;;;;;20.33;14.70;;;15.80;99.90;;;;;;5062007;28;20289;-72
2021/05/04 08:24:17;;;;;;;21.63;16.00;;;15.80;99.90;;;;;;5067800;28;20198;-72
2021/05/04 08:26:44;;;;;;;22.07;16.83;;;15.80;99.90;;;;;;5052445;28;20187;-74
2021/05/04 08:29:13;;;;;;;23.83;16.50;;;15.80;99.90;;;;;;5065812;28;20268;-72
2021/05/04 08:31:40;;;;;;;24.43;16.97;;;15.70;99.90;;;;;;5072098;28;20246;-74
2021/05/04 08:34:08;;;;;;;24.40;17.13;;;15.70;99.90;;;;;;5056060;28;20178;-72
2021/05/04 08:36:35;;;;;;;22.83;17.17;;;15.70;99.90;;;;;;5053906;28;20212;-80
2021/05/04 08:39:03;;;;;;;23.70;17.13;;;15.70;99.90;;;;;;5072602;28;20176;-72
2021/05/04 08:41:32;;;;;;;22.13;17.43;;;15.70;99.90;;;;;;5072417;28;20179;-72
2021/05/04 08:44:00;;;;;;;26.83;18.47;;;15.70;99.90;;;;;;5072150;28;20189;-75
2021/05/04 08:46:34;;;;;;;25.43;18.27;;;15.70;99.90;;;;;;5064666;28;20241;-72
2021/05/04 08:49:04;;;;;;;24.77;17.47;;;15.60;99.90;;;;;;5069961;28;20221;-71
2021/05/04 08:51:32;;;;;;;28.90;18.50;;;15.70;99.90;;;;;;5055109;28;20225;-74
2021/05/04 08:54:00;;;;;;;26.23;18.53;;;15.60;99.90;;;;;;5036781;28;20645;-74
2021/05/04 08:56:27;;;;;;;26.67;16.83;;;15.60;99.90;;;;;;5053687;28;20183;-75
2021/05/04 08:58:54;;;;;;;26.67;17.50;;;15.60;99.90;;;;;;5057679;28;20707;-76
2021/05/04 09:01:22;;;;;;;24.40;17.93;;;15.70;99.90;;;;;;5057305;28;20186;-82
2021/05/04 09:03:52;;;;;;;27.03;17.83;;;15.70;99.90;;;;;;5067679;28;20216;-79
2021/05/04 09:06:47;;;;;;;21.50;17.00;;;15.60;99.90;;;;;;5067153;28;20541;-75
2021/05/04 09:09:20;;;;;;;28.10;18.37;;;15.60;99.90;;;;;;5076397;28;20228;-71
2021/05/04 09:14:46;;;;;;;23.63;17.73;;;15.60;99.90;;;;;;5053367;28;20200;-80
2021/05/04 09:17:30;;;;;;;27.00;18.93;;;15.70;99.90;;;;;;5051909;28;20207;-74
2021/05/04 09:20:34;;;;;;;28.00;19.10;;;15.70;99.90;;;;;;5056918;28;20515;-72
2021/05/04 09:23:06;;;;;;;25.53;18.17;;;15.70;99.90;;;;;;5057402;28;20604;-76
2021/05/04 09:25:36;;;;;;;27.65;19.52;;;15.70;99.90;;;;;;5057152;28;20440;-75
2021/05/04 09:28:09;;;;;;;25.87;18.20;;;15.70;99.90;;;;;;5065863;28;20471;-74
2021/05/04 09:30:38;;;;;;;27.07;18.90;;;15.70;99.90;;;;;;5054098;28;20754;-80
2021/05/04 09:33:15;;;;;;;30.47;18.90;;;15.70;99.90;;;;;;5052628;28;20570;-75
2021/05/04 09:35:43;;;;;;;23.27;19.17;;;15.70;99.90;;;;;;5051744;28;20174;-79
2021/05/04 09:38:12;;;;;;;27.23;18.57;;;15.70;99.90;;;;;;5055281;28;20202;-78
2021/05/04 09:40:41;;;;;;;25.37;17.93;;;15.70;99.90;;;;;;5054918;28;20176;-76
2021/05/04 09:43:27;;;;;;;25.80;18.20;;;15.70;99.90;;;;;;5054365;28;20534;-76
2021/05/04 09:45:58;;;;;;;24.37;17.53;;;15.70;99.90;;;;;;5051254;28;20185;-76
2021/05/04 09:48:30;;;;;;;25.93;17.80;;;15.70;99.90;;;;;;5046887;28;20261;-76
2021/05/04 09:51:06;;;;;;;30.10;17.07;;;15.70;99.90;;;;;;5046705;28;20207;-76
2021/05/04 09:56:34;;;;;;;23.83;18.47;;;15.70;99.90;;;;;;5050335;28;20266;-75
2021/05/04 09:59:02;;;;;;;23.03;16.57;;;15.70;99.90;;;;;;5056864;28;20518;-75
2021/05/04 10:01:30;;;;;;;26.17;18.90;;;15.70;99.90;;;;;;5059513;28;20610;-75
2021/05/04 10:03:58;;;;;;;24.67;17.70;;;15.70;99.90;;;;;;5058589;28;20171;-75
2021/05/04 10:06:26;;;;;;;26.40;18.43;;;15.70;99.90;;;;;;5062546;28;20181;-77
2021/05/04 10:08:53;;;;;;;24.13;18.17;;;15.70;99.90;;;;;;5058846;28;20178;-76
2021/05/04 10:11:22;;;;;;;24.00;19.00;;;15.70;99.90;;;;;;5068038;28;20216;-78
2021/05/04 10:13:55;;;;;;;26.17;18.83;;;15.60;99.90;;;;;;5055618;28;20195;-74
2021/05/04 10:16:27;;;;;;;23.30;17.80;;;15.60;99.90;;;;;;5065896;28;20193;-76
2021/05/04 10:19:03;;;;;;;26.67;18.07;;;15.70;99.90;;;;;;5053993;28;20183;-78
2021/05/04 10:21:31;;;;;;;25.77;17.77;;;15.70;99.90;;;;;;5044444;28;20190;-75
2021/05/04 10:23:58;;;;;;;24.43;18.20;;;15.70;99.90;;;;;;5054680;28;20514;-76
2021/05/04 10:26:33;;;;;;;30.30;18.77;;;15.70;99.90;;;;;;5054079;28;20329;-79
2021/05/04 10:29:07;;;;;;;23.50;18.60;;;15.60;99.90;;;;;;5053475;28;20181;-77
2021/05/04 10:31:46;;;;;;;28.43;19.40;;;15.60;99.90;;;;;;5053561;28;20227;-78
2021/05/04 10:34:32;;;;;;;25.03;19.13;;;15.60;99.90;;;;;;5051917;28;20171;-79
2021/05/04 10:37:15;;;;;;;27.20;19.37;;;15.60;99.90;;;;;;5045769;28;20196;-80
2021/05/04 10:39:45;;;;;;;21.97;18.33;;;15.60;99.90;;;;;;5054141;28;20583;-82
2021/05/04 10:42:16;;;;;;;28.27;19.17;;;15.60;99.90;;;;;;5052659;28;20183;-79
2021/05/04 10:44:59;;;;;;;25.17;17.70;;;15.60;99.90;;;;;;5053314;28;20193;-81
2021/05/04 10:47:47;;;;;;;29.53;18.47;;;15.60;99.90;;;;;;5052550;28;20178;-75
2021/05/04 10:50:16;;;;;;;23.40;16.77;;;15.60;99.90;;;;;;5047387;28;20611;-76
2021/05/04 10:52:54;;;;;;;26.50;18.03;;;15.60;99.90;;;;;;5053696;28;20187;-77
2021/05/04 10:55:23;;;;;;;22.27;17.93;;;15.60;99.90;;;;;;5053519;28;20182;-75
2021/05/04 10:58:03;;;;;;;21.73;18.10;;;15.60;99.90;;;;;;5052642;28;20186;-76
2021/05/04 11:01:04;;;;;;;23.87;17.50;;;15.60;99.90;;;;;;5044318;28;20270;-76
2021/05/04 11:03:31;;;;;;;25.57;17.57;;;15.60;99.90;;;;;;5037381;28;20189;-75
2021/05/04 11:06:00;;;;;;;23.10;17.10;;;15.50;99.90;;;;;;5053514;28;20185;-77
2021/05/04 11:08:50;;;;;;;24.77;18.00;;;15.40;99.90;;;;;;5054437;28;20180;-76
2021/05/04 11:11:27;;;;;;;24.50;18.07;;;15.50;99.90;;;;;;5037316;28;20315;-76
2021/05/04 11:14:02;;;;;;;25.87;18.37;;;15.50;99.90;;;;;;5043491;28;20215;-76
2021/05/04 11:16:36;;;;;;;26.73;18.87;;;15.50;99.90;;;;;;5047363;28;20187;-76
2021/05/04 11:19:08;;;;;;;26.27;19.07;;;15.50;99.90;;;;;;5044149;28;20227;-79
2021/05/04 11:21:44;;;;;;;26.43;20.10;;;15.50;99.90;;;;;;5052086;28;20175;-78
2021/05/04 11:24:17;;;;;;;26.97;19.67;;;15.50;99.90;;;;;;5052485;28;20673;-77
2021/05/04 11:26:53;;;;;;;29.20;20.97;;;15.50;99.90;;;;;;5048086;28;20207;-77
2021/05/04 11:29:40;;;;;;;27.60;20.67;;;15.50;99.90;;;;;;5054560;28;20189;-80
2021/05/04 11:32:25;;;;;;;30.87;21.03;;;15.50;99.90;;;;;;5054406;28;20211;-76
2021/05/04 11:34:55;;;;;;;28.03;21.03;;;15.50;99.90;;;;;;5052690;28;20188;-77
2021/05/04 11:37:28;;;;;;;34.23;21.70;;;15.50;99.90;;;;;;5053932;28;20529;-76
2021/05/04 11:40:05;;;;;;;33.03;22.20;;;15.60;99.90;;;;;;5053833;28;20261;-77
2021/05/04 11:42:45;;;;;;;31.57;22.07;;;15.50;99.90;;;;;;5052627;28;20263;-78
2021/05/04 11:45:14;;;;;;;27.23;20.83;;;15.50;99.90;;;;;;5049782;28;20203;-78
2021/05/04 11:47:50;;;;;;;32.73;22.57;;;15.50;99.90;;;;;;5053338;28;20549;-75
2021/05/04 11:50:20;;;;;;;29.27;21.43;;;15.50;99.90;;;;;;5051826;28;20188;-79
2021/05/04 11:52:57;;;;;;;33.30;23.13;;;15.50;99.90;;;;;;5052554;28;20188;-77
2021/05/04 11:55:41;;;;;;;29.80;21.73;;;15.50;99.90;;;;;;5045109;28;20172;-79
2021/05/04 11:58:13;;;;;;;29.03;21.97;;;15.50;99.90;;;;;;5052156;28;20202;-77
2021/05/04 12:00:41;;;;;;;32.60;22.43;;;15.50;99.90;;;;;;5052462;28;20188;-76
2021/05/04 12:03:18;;;;;;;28.80;21.83;;;15.50;99.90;;;;;;5053039;28;20678;-79
2021/05/04 12:05:51;;;;;;;27.90;20.83;;;15.40;99.90;;;;;;5054630;28;20186;-75
2021/05/04 12:08:19;;;;;;;28.97;20.57;;;15.50;99.90;;;;;;5053509;28;20642;-75
2021/05/04 12:10:50;;;;;;;27.30;20.43;;;15.50;99.90;;;;;;5052878;28;20207;-73
2021/05/04 12:13:23;;;;;;;29.27;20.33;;;15.40;99.90;;;;;;5052352;28;20723;-74
2021/05/04 12:16:01;;;;;;;28.10;20.70;;;15.40;99.90;;;;;;5045771;28;20194;-74
2021/05/04 12:18:33;;;;;;;29.57;20.17;;;15.40;99.90;;;;;;5047427;28;20167;-77
2021/05/04 12:21:03;;;;;;;30.87;19.07;;;15.30;99.90;;;;;;5052323;28;20218;-75
2021/05/04 12:23:38;;;;;;;25.20;19.07;;;15.30;99.90;;;;;;5052915;28;20229;-75
2021/05/04 12:26:11;;;;;;;26.97;19.40;;;15.30;99.90;;;;;;5067926;28;20175;-74
2021/05/04 12:28:51;;;;;;;22.93;17.73;;;15.30;99.90;;;;;;5052119;28;20278;-75
2021/05/04 12:31:28;;;;;;;19.70;16.47;;;15.30;99.90;;;;;;5049814;28;20223;-75
2021/05/04 12:33:56;;;;;;;20.03;15.63;;;15.30;99.90;;;;;;5052003;28;20175;-74
2021/05/04 12:39:33;;;;;;;23.00;16.97;;;15.20;99.90;;;;;;5052598;28;20181;-74
2021/05/04 12:42:19;;;;;;;23.20;16.70;;;15.20;99.90;;;;;;5052138;28;20176;-74
2021/05/04 12:44:47;;;;;;;19.97;15.67;;;15.20;99.90;;;;;;5052184;28;20207;-75
2021/05/04 12:47:18;;;;;;;22.73;16.40;;;15.20;99.90;;;;;;5050946;28;20514;-75
2021/05/04 12:49:47;;;;;;;23.23;16.33;;;15.20;99.90;;;;;;5052431;28;20172;-76